KMMT

Mc Entire Jngb Airport

Eastover, South Carolina, USA
METAR KMMT 241211Z AUTO 20004KT 2 3/4SM BR OVC002 17/17 A3025 RMK AO2 SLP245 $
Observed Flight Rules
Feb-24 @ 12:11 UTC (13 minutes ago) Instrument Flight Rules
Wind Visibility Clouds Conditions
200° at 4 knots 2 3/4 miles
  • Overcast at 200' AGL
  • Mist
Temperatures Readings
Current 17°C / 63°F
Dewpoint 17°C / 63°F
Humidity 100%
Altimeter 30.25" Hg
Pressure 1024.5 hPa
Elevation 77
METAR KMMT 241211Z AUTO 20004KT 2 3/4SM BR OVC002 17/17 A3025 RMK AO2 SLP245 $
Observed Flight Rules
Feb-24 @ 12:11 UTC
(13 minutes ago)
LIFR
Wind Visibility
200° at 4 knots 2 3/4 miles
Clouds
  • Overcast at 200' AGL
Conditions
  • Mist
Temperature Dewpoint
17°C / 63°F 17°C / 63°F
Humidity Altimeter Pressure
100% 30.25" Hg 1024.5 hPa